sensor_id;sensor_type;location;lat;lon;timestamp;temperature;humidity
34572;DHT22;20808;48.974;8.452;2022-12-07T00:01:22;4.30;99.90
34572;DHT22;20808;48.974;8.452;2022-12-07T00:03:51;4.30;99.90
34572;DHT22;20808;48.974;8.452;2022-12-07T00:06:18;4.20;99.90
34572;DHT22;20808;48.974;8.452;2022-12-07T00:08:46;4.20;99.90
34572;DHT22;20808;48.974;8.452;2022-12-07T00:11:15;4.30;99.90
34572;DHT22;20808;48.974;8.452;2022-12-07T00:13:44;4.30;99.90
34572;DHT22;20808;48.974;8.452;2022-12-07T00:16:12;4.40;99.90
34572;DHT22;20808;48.974;8.452;2022-12-07T00:18:40;4.40;99.90
34572;DHT22;20808;48.974;8.452;2022-12-07T00:21:11;4.40;99.90
34572;DHT22;20808;48.974;8.452;2022-12-07T00:23:39;4.30;99.90
34572;DHT22;20808;48.974;8.452;2022-12-07T00:26:07;4.30;99.90
34572;DHT22;20808;48.974;8.452;2022-12-07T00:28:34;4.30;99.90
34572;DHT22;20808;48.974;8.452;2022-12-07T00:31:04;4.30;99.90
34572;DHT22;20808;48.974;8.452;2022-12-07T00:33:31;4.30;99.90
34572;DHT22;20808;48.974;8.452;2022-12-07T00:35:59;4.30;99.90
34572;DHT22;20808;48.974;8.452;2022-12-07T00:38:27;4.30;99.90
34572;DHT22;20808;48.974;8.452;2022-12-07T00:40:56;4.30;99.90
34572;DHT22;20808;48.974;8.452;2022-12-07T00:43:23;4.20;99.90
34572;DHT22;20808;48.974;8.452;2022-12-07T00:45:50;4.20;99.90
34572;DHT22;20808;48.974;8.452;2022-12-07T00:48:18;4.30;99.90
34572;DHT22;20808;48.974;8.452;2022-12-07T00:50:45;4.30;99.90
34572;DHT22;20808;48.974;8.452;2022-12-07T00:53:12;4.20;99.90
34572;DHT22;20808;48.974;8.452;2022-12-07T00:55:39;4.20;99.90
34572;DHT22;20808;48.974;8.452;2022-12-07T00:58:06;4.20;99.90
34572;DHT22;20808;48.974;8.452;2022-12-07T01:00:32;4.20;99.90
34572;DHT22;20808;48.974;8.452;2022-12-07T01:03:00;4.10;99.90
34572;DHT22;20808;48.974;8.452;2022-12-07T01:05:28;4.20;99.90
34572;DHT22;20808;48.974;8.452;2022-12-07T01:07:55;4.10;99.90
34572;DHT22;20808;48.974;8.452;2022-12-07T01:10:22;4.20;99.90
34572;DHT22;20808;48.974;8.452;2022-12-07T01:12:48;4.20;99.90
34572;DHT22;20808;48.974;8.452;2022-12-07T01:15:15;4.20;99.90
34572;DHT22;20808;48.974;8.452;2022-12-07T01:17:42;4.10;99.90
34572;DHT22;20808;48.974;8.452;2022-12-07T01:20:10;4.10;99.90
34572;DHT22;20808;48.974;8.452;2022-12-07T01:22:39;4.20;99.90
34572;DHT22;20808;48.974;8.452;2022-12-07T01:25:06;4.20;99.90
34572;DHT22;20808;48.974;8.452;2022-12-07T01:27:33;4.20;99.90
34572;DHT22;20808;48.974;8.452;2022-12-07T01:30:01;4.20;99.90
34572;DHT22;20808;48.974;8.452;2022-12-07T01:32:29;4.20;99.90
34572;DHT22;20808;48.974;8.452;2022-12-07T01:34:55;4.20;99.90
34572;DHT22;20808;48.974;8.452;2022-12-07T01:37:23;4.10;99.90
34572;DHT22;20808;48.974;8.452;2022-12-07T01:39:51;4.20;99.90
34572;DHT22;20808;48.974;8.452;2022-12-07T01:42:18;4.20;99.90
34572;DHT22;20808;48.974;8.452;2022-12-07T01:48:02;4.20;99.90
34572;DHT22;20808;48.974;8.452;2022-12-07T01:50:29;4.20;99.90
34572;DHT22;20808;48.974;8.452;2022-12-07T01:53:00;4.10;99.90
34572;DHT22;20808;48.974;8.452;2022-12-07T01:55:29;4.10;99.90
34572;DHT22;20808;48.974;8.452;2022-12-07T01:57:56;4.00;99.90
34572;DHT22;20808;48.974;8.452;2022-12-07T02:00:23;4.00;99.90
34572;DHT22;20808;48.974;8.452;2022-12-07T02:02:53;4.00;99.90
34572;DHT22;20808;48.974;8.452;2022-12-07T02:05:23;4.10;99.90
34572;DHT22;20808;48.974;8.452;2022-12-07T02:07:53;4.00;99.90
34572;DHT22;20808;48.974;8.452;2022-12-07T02:10:23;4.00;99.90
34572;DHT22;20808;48.974;8.452;2022-12-07T02:12:54;4.00;99.90
34572;DHT22;20808;48.974;8.452;2022-12-07T02:15:24;4.00;99.90
34572;DHT22;20808;48.974;8.452;2022-12-07T02:17:58;3.90;99.90
34572;DHT22;20808;48.974;8.452;2022-12-07T02:20:30;3.80;99.90
34572;DHT22;20808;48.974;8.452;2022-12-07T02:26:40;3.60;99.90
34572;DHT22;20808;48.974;8.452;2022-12-07T02:29:22;3.40;99.90
34572;DHT22;20808;48.974;8.452;2022-12-07T02:31:58;3.40;99.90
34572;DHT22;20808;48.974;8.452;2022-12-07T02:34:34;3.40;99.90
34572;DHT22;20808;48.974;8.452;2022-12-07T02:37:07;3.40;99.90
34572;DHT22;20808;48.974;8.452;2022-12-07T02:39:41;3.40;99.90
34572;DHT22;20808;48.974;8.452;2022-12-07T02:42:14;3.50;99.90
34572;DHT22;20808;48.974;8.452;2022-12-07T02:44:43;3.70;99.90
34572;DHT22;20808;48.974;8.452;2022-12-07T02:47:14;3.70;99.90
34572;DHT22;20808;48.974;8.452;2022-12-07T02:49:42;3.90;99.90
34572;DHT22;20808;48.974;8.452;2022-12-07T02:52:09;3.80;99.90
34572;DHT22;20808;48.974;8.452;2022-12-07T02:54:36;3.80;99.90
34572;DHT22;20808;48.974;8.452;2022-12-07T02:57:17;3.90;99.90
34572;DHT22;20808;48.974;8.452;2022-12-07T02:59:58;3.90;99.90
34572;DHT22;20808;48.974;8.452;2022-12-07T03:02:33;4.00;99.90
34572;DHT22;20808;48.974;8.452;2022-12-07T03:05:13;4.00;99.90
34572;DHT22;20808;48.974;8.452;2022-12-07T03:07:51;3.90;99.90
34572;DHT22;20808;48.974;8.452;2022-12-07T03:10:27;3.90;99.90
34572;DHT22;20808;48.974;8.452;2022-12-07T03:13:01;3.80;99.90
34572;DHT22;20808;48.974;8.452;2022-12-07T03:15:33;3.80;99.90
34572;DHT22;20808;48.974;8.452;2022-12-07T03:18:03;3.80;99.90
34572;DHT22;20808;48.974;8.452;2022-12-07T03:20:32;3.90;99.90
34572;DHT22;20808;48.974;8.452;2022-12-07T03:23:00;4.00;99.90
34572;DHT22;20808;48.974;8.452;2022-12-07T03:25:29;4.00;99.90
34572;DHT22;20808;48.974;8.452;2022-12-07T03:27:58;4.00;99.90
34572;DHT22;20808;48.974;8.452;2022-12-07T03:30:29;4.00;99.90
34572;DHT22;20808;48.974;8.452;2022-12-07T03:33:01;4.00;99.90
34572;DHT22;20808;48.974;8.452;2022-12-07T03:35:33;4.00;99.90
34572;DHT22;20808;48.974;8.452;2022-12-07T03:38:08;4.00;99.90
34572;DHT22;20808;48.974;8.452;2022-12-07T03:40:44;4.00;99.90
34572;DHT22;20808;48.974;8.452;2022-12-07T03:43:14;4.10;99.90
34572;DHT22;20808;48.974;8.452;2022-12-07T03:45:42;4.00;99.90
34572;DHT22;20808;48.974;8.452;2022-12-07T03:48:19;4.00;99.90
34572;DHT22;20808;48.974;8.452;2022-12-07T03:50:52;3.90;99.90
34572;DHT22;20808;48.974;8.452;2022-12-07T03:53:24;3.80;99.90
34572;DHT22;20808;48.974;8.452;2022-12-07T03:55:54;3.70;99.90
34572;DHT22;20808;48.974;8.452;2022-12-07T03:58:21;3.40;99.90
34572;DHT22;20808;48.974;8.452;2022-12-07T04:00:49;3.20;99.90
34572;DHT22;20808;48.974;8.452;2022-12-07T04:03:18;3.10;99.90
34572;DHT22;20808;48.974;8.452;2022-12-07T04:05:45;3.10;99.90
34572;DHT22;20808;48.974;8.452;2022-12-07T04:08:12;3.20;99.90
34572;DHT22;20808;48.974;8.452;2022-12-07T04:10:39;3.30;99.90
34572;DHT22;20808;48.974;8.452;2022-12-07T04:13:06;3.30;99.90
34572;DHT22;20808;48.974;8.452;2022-12-07T04:15:32;3.40;99.90
34572;DHT22;20808;48.974;8.452;2022-12-07T04:17:59;3.40;99.90
34572;DHT22;20808;48.974;8.452;2022-12-07T04:20:27;3.40;99.90
34572;DHT22;20808;48.974;8.452;2022-12-07T04:22:54;3.30;99.90
34572;DHT22;20808;48.974;8.452;2022-12-07T04:25:21;3.40;99.90
34572;DHT22;20808;48.974;8.452;2022-12-07T04:27:48;3.30;99.90
34572;DHT22;20808;48.974;8.452;2022-12-07T04:30:15;3.40;99.90
34572;DHT22;20808;48.974;8.452;2022-12-07T04:32:42;3.50;99.90
34572;DHT22;20808;48.974;8.452;2022-12-07T04:35:08;3.50;99.90
34572;DHT22;20808;48.974;8.452;2022-12-07T04:37:37;3.50;99.90
34572;DHT22;20808;48.974;8.452;2022-12-07T04:40:06;3.50;99.90
34572;DHT22;20808;48.974;8.452;2022-12-07T04:42:34;3.60;99.90
34572;DHT22;20808;48.974;8.452;2022-12-07T04:45:00;3.50;99.90
34572;DHT22;20808;48.974;8.452;2022-12-07T04:47:27;3.50;99.90
34572;DHT22;20808;48.974;8.452;2022-12-07T04:49:54;3.60;99.90
34572;DHT22;20808;48.974;8.452;2022-12-07T04:52:21;3.60;99.90
34572;DHT22;20808;48.974;8.452;2022-12-07T04:54:49;3.60;99.90
34572;DHT22;20808;48.974;8.452;2022-12-07T04:57:16;3.60;99.90
34572;DHT22;20808;48.974;8.452;2022-12-07T04:59:42;3.60;99.90
34572;DHT22;20808;48.974;8.452;2022-12-07T05:02:09;3.60;99.90
34572;DHT22;20808;48.974;8.452;2022-12-07T05:04:36;3.60;99.90
34572;DHT22;20808;48.974;8.452;2022-12-07T05:07:03;3.60;99.90
34572;DHT22;20808;48.974;8.452;2022-12-07T05:09:29;3.70;99.90
34572;DHT22;20808;48.974;8.452;2022-12-07T05:11:57;3.70;99.90
34572;DHT22;20808;48.974;8.452;2022-12-07T05:14:24;3.70;99.90
34572;DHT22;20808;48.974;8.452;2022-12-07T05:16:51;3.60;99.90
34572;DHT22;20808;48.974;8.452;2022-12-07T05:19:19;3.60;99.90
34572;DHT22;20808;48.974;8.452;2022-12-07T05:21:46;3.60;99.90
34572;DHT22;20808;48.974;8.452;2022-12-07T05:24:15;3.70;99.90
34572;DHT22;20808;48.974;8.452;2022-12-07T05:26:42;3.60;99.90
34572;DHT22;20808;48.974;8.452;2022-12-07T05:29:13;3.60;99.90
34572;DHT22;20808;48.974;8.452;2022-12-07T05:31:44;3.60;99.90
34572;DHT22;20808;48.974;8.452;2022-12-07T05:34:11;3.70;99.90
34572;DHT22;20808;48.974;8.452;2022-12-07T05:36:37;3.70;99.90
34572;DHT22;20808;48.974;8.452;2022-12-07T05:39:04;3.70;99.90
34572;DHT22;20808;48.974;8.452;2022-12-07T05:41:31;3.70;99.90
34572;DHT22;20808;48.974;8.452;2022-12-07T05:44:17;3.70;99.90
34572;DHT22;20808;48.974;8.452;2022-12-07T05:46:43;3.70;99.90
34572;DHT22;20808;48.974;8.452;2022-12-07T05:49:10;3.70;99.90
34572;DHT22;20808;48.974;8.452;2022-12-07T05:51:37;3.80;99.90
34572;DHT22;20808;48.974;8.452;2022-12-07T05:54:04;3.80;99.90
34572;DHT22;20808;48.974;8.452;2022-12-07T05:56:31;3.70;99.90
34572;DHT22;20808;48.974;8.452;2022-12-07T05:58:57;3.80;99.90
34572;DHT22;20808;48.974;8.452;2022-12-07T06:01:43;3.80;99.90
34572;DHT22;20808;48.974;8.452;2022-12-07T06:04:10;3.80;59.90
34572;DHT22;20808;48.974;8.452;2022-12-07T06:06:37;3.80;23.70
34572;DHT22;20808;48.974;8.452;2022-12-07T06:09:04;3.80;1.00
34572;DHT22;20808;48.974;8.452;2022-12-07T06:11:31;3.80;1.00
34572;DHT22;20808;48.974;8.452;2022-12-07T06:14:15;3.80;1.00
34572;DHT22;20808;48.974;8.452;2022-12-07T06:16:44;3.80;1.00
34572;DHT22;20808;48.974;8.452;2022-12-07T06:19:11;3.80;1.00
34572;DHT22;20808;48.974;8.452;2022-12-07T06:21:37;3.80;1.00
34572;DHT22;20808;48.974;8.452;2022-12-07T06:24:05;3.80;1.00
34572;DHT22;20808;48.974;8.452;2022-12-07T06:26:32;3.80;1.00
34572;DHT22;20808;48.974;8.452;2022-12-07T06:28:58;3.80;1.00
34572;DHT22;20808;48.974;8.452;2022-12-07T06:31:25;3.70;1.00
34572;DHT22;20808;48.974;8.452;2022-12-07T06:33:58;3.80;1.00
34572;DHT22;20808;48.974;8.452;2022-12-07T06:36:25;3.80;1.00
34572;DHT22;20808;48.974;8.452;2022-12-07T06:38:51;3.70;1.00
34572;DHT22;20808;48.974;8.452;2022-12-07T06:41:18;3.80;1.00
34572;DHT22;20808;48.974;8.452;2022-12-07T06:43:45;3.80;1.00
34572;DHT22;20808;48.974;8.452;2022-12-07T06:46:12;3.80;1.00
34572;DHT22;20808;48.974;8.452;2022-12-07T06:48:39;3.80;1.00
34572;DHT22;20808;48.974;8.452;2022-12-07T06:51:08;3.80;1.00
34572;DHT22;20808;48.974;8.452;2022-12-07T06:53:35;3.80;1.00
34572;DHT22;20808;48.974;8.452;2022-12-07T06:56:02;3.90;1.00
34572;DHT22;20808;48.974;8.452;2022-12-07T06:58:29;3.80;1.00
34572;DHT22;20808;48.974;8.452;2022-12-07T07:00:57;3.80;1.00
34572;DHT22;20808;48.974;8.452;2022-12-07T07:03:23;3.80;1.00
34572;DHT22;20808;48.974;8.452;2022-12-07T07:05:50;3.80;1.00
34572;DHT22;20808;48.974;8.452;2022-12-07T07:08:18;3.80;1.00
34572;DHT22;20808;48.974;8.452;2022-12-07T07:10:45;3.80;1.00
34572;DHT22;20808;48.974;8.452;2022-12-07T07:13:12;3.80;1.00
34572;DHT22;20808;48.974;8.452;2022-12-07T07:15:38;3.80;99.90
34572;DHT22;20808;48.974;8.452;2022-12-07T07:18:05;3.80;99.90
34572;DHT22;20808;48.974;8.452;2022-12-07T07:20:32;3.80;99.90
34572;DHT22;20808;48.974;8.452;2022-12-07T07:22:59;3.90;25.40
34572;DHT22;20808;48.974;8.452;2022-12-07T07:25:27;3.90;8.50
34572;DHT22;20808;48.974;8.452;2022-12-07T07:27:54;3.90;99.90
34572;DHT22;20808;48.974;8.452;2022-12-07T07:30:21;3.90;43.20
34572;DHT22;20808;48.974;8.452;2022-12-07T07:32:47;3.90;99.90
34572;DHT22;20808;48.974;8.452;2022-12-07T07:35:14;4.00;1.00
34572;DHT22;20808;48.974;8.452;2022-12-07T07:37:41;4.00;1.00
34572;DHT22;20808;48.974;8.452;2022-12-07T07:40:09;4.00;1.00
34572;DHT22;20808;48.974;8.452;2022-12-07T07:42:37;4.00;1.00
34572;DHT22;20808;48.974;8.452;2022-12-07T07:45:05;4.00;1.00
34572;DHT22;20808;48.974;8.452;2022-12-07T07:47:32;4.00;1.00
34572;DHT22;20808;48.974;8.452;2022-12-07T07:49:58;4.10;1.00
34572;DHT22;20808;48.974;8.452;2022-12-07T07:52:26;4.10;1.00
34572;DHT22;20808;48.974;8.452;2022-12-07T07:54:53;4.10;17.80
34572;DHT22;20808;48.974;8.452;2022-12-07T07:57:19;4.10;99.90
34572;DHT22;20808;48.974;8.452;2022-12-07T07:59:47;4.20;99.90
34572;DHT22;20808;48.974;8.452;2022-12-07T08:02:15;4.20;12.90
34572;DHT22;20808;48.974;8.452;2022-12-07T08:04:42;4.20;1.00
34572;DHT22;20808;48.974;8.452;2022-12-07T08:07:09;4.30;1.00
34572;DHT22;20808;48.974;8.452;2022-12-07T08:09:36;4.30;1.00
34572;DHT22;20808;48.974;8.452;2022-12-07T08:12:03;4.20;99.90
34572;DHT22;20808;48.974;8.452;2022-12-07T08:14:30;4.20;1.00
34572;DHT22;20808;48.974;8.452;2022-12-07T08:16:59;4.10;1.00
34572;DHT22;20808;48.974;8.452;2022-12-07T08:19:27;4.10;37.80
34572;DHT22;20808;48.974;8.452;2022-12-07T08:21:54;4.10;99.90
34572;DHT22;20808;48.974;8.452;2022-12-07T08:24:22;4.00;99.90
34572;DHT22;20808;48.974;8.452;2022-12-07T08:26:48;4.00;99.90
34572;DHT22;20808;48.974;8.452;2022-12-07T08:29:15;4.10;1.00
34572;DHT22;20808;48.974;8.452;2022-12-07T08:31:42;4.10;99.90
34572;DHT22;20808;48.974;8.452;2022-12-07T08:34:11;4.10;1.00
34572;DHT22;20808;48.974;8.452;2022-12-07T08:36:38;4.10;1.00
34572;DHT22;20808;48.974;8.452;2022-12-07T08:39:05;4.20;1.00
34572;DHT22;20808;48.974;8.452;2022-12-07T08:41:32;4.20;1.00
34572;DHT22;20808;48.974;8.452;2022-12-07T08:43:59;4.20;99.90
34572;DHT22;20808;48.974;8.452;2022-12-07T08:46:29;4.30;99.90
34572;DHT22;20808;48.974;8.452;2022-12-07T08:49:03;4.30;99.90
34572;DHT22;20808;48.974;8.452;2022-12-07T08:51:32;4.40;1.00
34572;DHT22;20808;48.974;8.452;2022-12-07T08:54:00;4.40;99.90
34572;DHT22;20808;48.974;8.452;2022-12-07T08:56:27;4.40;1.00
34572;DHT22;20808;48.974;8.452;2022-12-07T08:58:54;4.40;99.90
34572;DHT22;20808;48.974;8.452;2022-12-07T09:01:21;4.50;1.00
34572;DHT22;20808;48.974;8.452;2022-12-07T09:03:48;4.50;99.90
34572;DHT22;20808;48.974;8.452;2022-12-07T09:06:15;4.50;1.00
34572;DHT22;20808;48.974;8.452;2022-12-07T09:08:46;4.60;1.00
34572;DHT22;20808;48.974;8.452;2022-12-07T09:11:13;4.50;1.00
34572;DHT22;20808;48.974;8.452;2022-12-07T09:13:40;4.60;5.20
34572;DHT22;20808;48.974;8.452;2022-12-07T09:16:07;4.50;99.90
34572;DHT22;20808;48.974;8.452;2022-12-07T09:18:34;4.60;1.00
34572;DHT22;20808;48.974;8.452;2022-12-07T09:21:01;4.60;1.00
34572;DHT22;20808;48.974;8.452;2022-12-07T09:23:27;4.60;1.00
34572;DHT22;20808;48.974;8.452;2022-12-07T09:25:59;4.60;1.00
34572;DHT22;20808;48.974;8.452;2022-12-07T09:28:26;4.60;1.00
34572;DHT22;20808;48.974;8.452;2022-12-07T09:30:52;4.60;1.00
34572;DHT22;20808;48.974;8.452;2022-12-07T09:33:19;4.70;99.90
34572;DHT22;20808;48.974;8.452;2022-12-07T09:35:46;4.70;17.30
34572;DHT22;20808;48.974;8.452;2022-12-07T09:38:13;4.80;1.00
34572;DHT22;20808;48.974;8.452;2022-12-07T09:40:40;4.80;1.00
34572;DHT22;20808;48.974;8.452;2022-12-07T09:43:13;5.00;99.90
34572;DHT22;20808;48.974;8.452;2022-12-07T09:45:42;5.00;56.60
34572;DHT22;20808;48.974;8.452;2022-12-07T09:48:15;5.00;1.00
34572;DHT22;20808;48.974;8.452;2022-12-07T09:50:44;5.00;1.00
34572;DHT22;20808;48.974;8.452;2022-12-07T09:53:15;5.00;1.00
34572;DHT22;20808;48.974;8.452;2022-12-07T09:55:44;5.00;1.00
34572;DHT22;20808;48.974;8.452;2022-12-07T09:58:19;5.00;1.00
34572;DHT22;20808;48.974;8.452;2022-12-07T10:00:47;5.00;1.00
34572;DHT22;20808;48.974;8.452;2022-12-07T10:03:14;5.00;1.00
34572;DHT22;20808;48.974;8.452;2022-12-07T10:05:43;5.00;1.00
34572;DHT22;20808;48.974;8.452;2022-12-07T10:08:12;5.00;1.00
34572;DHT22;20808;48.974;8.452;2022-12-07T10:10:39;5.10;1.00
34572;DHT22;20808;48.974;8.452;2022-12-07T10:13:08;5.20;1.00
34572;DHT22;20808;48.974;8.452;2022-12-07T10:15:48;5.40;99.90
34572;DHT22;20808;48.974;8.452;2022-12-07T10:18:29;5.50;1.00
34572;DHT22;20808;48.974;8.452;2022-12-07T10:21:05;5.60;1.00
34572;DHT22;20808;48.974;8.452;2022-12-07T10:23:34;5.80;1.00
34572;DHT22;20808;48.974;8.452;2022-12-07T10:26:20;5.90;99.90
34572;DHT22;20808;48.974;8.452;2022-12-07T10:28:48;5.80;99.90
34572;DHT22;20808;48.974;8.452;2022-12-07T10:31:19;5.80;99.90
34572;DHT22;20808;48.974;8.452;2022-12-07T10:33:50;5.90;99.90
34572;DHT22;20808;48.974;8.452;2022-12-07T10:36:20;5.80;99.90
34572;DHT22;20808;48.974;8.452;2022-12-07T10:38:49;5.70;99.90
34572;DHT22;20808;48.974;8.452;2022-12-07T10:41:16;5.60;1.00
34572;DHT22;20808;48.974;8.452;2022-12-07T10:43:51;5.60;1.00
34572;DHT22;20808;48.974;8.452;2022-12-07T10:49:41;5.50;99.90
34572;DHT22;20808;48.974;8.452;2022-12-07T10:52:20;5.50;1.00
34572;DHT22;20808;48.974;8.452;2022-12-07T10:55:01;5.50;99.90
34572;DHT22;20808;48.974;8.452;2022-12-07T10:57:42;5.50;1.00
34572;DHT22;20808;48.974;8.452;2022-12-07T11:00:18;5.50;1.00
34572;DHT22;20808;48.974;8.452;2022-12-07T11:03:01;5.40;1.00
34572;DHT22;20808;48.974;8.452;2022-12-07T11:05:39;5.40;1.00
34572;DHT22;20808;48.974;8.452;2022-12-07T11:08:14;5.40;1.00
34572;DHT22;20808;48.974;8.452;2022-12-07T11:10:47;5.40;1.00
34572;DHT22;20808;48.974;8.452;2022-12-07T11:13:29;5.40;1.00
34572;DHT22;20808;48.974;8.452;2022-12-07T11:19:04;5.30;1.00
34572;DHT22;20808;48.974;8.452;2022-12-07T11:21:39;5.30;81.00
34572;DHT22;20808;48.974;8.452;2022-12-07T11:24:15;5.30;1.00
34572;DHT22;20808;48.974;8.452;2022-12-07T11:26:56;5.30;1.00
34572;DHT22;20808;48.974;8.452;2022-12-07T11:29:54;5.30;1.00
34572;DHT22;20808;48.974;8.452;2022-12-07T11:32:40;5.30;99.90
34572;DHT22;20808;48.974;8.452;2022-12-07T11:35:15;5.40;99.90
34572;DHT22;20808;48.974;8.452;2022-12-07T11:37:47;5.60;1.00
34572;DHT22;20808;48.974;8.452;2022-12-07T11:40:20;5.70;1.00
34572;DHT22;20808;48.974;8.452;2022-12-07T11:42:53;5.80;1.00
34572;DHT22;20808;48.974;8.452;2022-12-07T11:45:26;5.70;99.90
34572;DHT22;20808;48.974;8.452;2022-12-07T11:47:58;5.80;1.00
34572;DHT22;20808;48.974;8.452;2022-12-07T11:50:33;5.80;1.00
34572;DHT22;20808;48.974;8.452;2022-12-07T11:53:05;5.90;1.00
34572;DHT22;20808;48.974;8.452;2022-12-07T11:55:42;6.00;99.90
34572;DHT22;20808;48.974;8.452;2022-12-07T11:58:20;6.10;99.90
34572;DHT22;20808;48.974;8.452;2022-12-07T12:00:49;6.10;1.00
34572;DHT22;20808;48.974;8.452;2022-12-07T12:03:23;6.00;1.00
34572;DHT22;20808;48.974;8.452;2022-12-07T12:05:55;5.90;1.00
34572;DHT22;20808;48.974;8.452;2022-12-07T12:08:27;5.80;1.00
34572;DHT22;20808;48.974;8.452;2022-12-07T12:11:02;5.80;1.00
34572;DHT22;20808;48.974;8.452;2022-12-07T12:13:54;5.70;1.80
34572;DHT22;20808;48.974;8.452;2022-12-07T12:16:48;5.60;1.00
34572;DHT22;20808;48.974;8.452;2022-12-07T12:19:27;5.50;44.50
34572;DHT22;20808;48.974;8.452;2022-12-07T12:22:06;5.40;1.00
34572;DHT22;20808;48.974;8.452;2022-12-07T12:24:38;5.50;1.00
34572;DHT22;20808;48.974;8.452;2022-12-07T12:27:08;5.60;1.00
34572;DHT22;20808;48.974;8.452;2022-12-07T12:29:38;5.50;1.00
34572;DHT22;20808;48.974;8.452;2022-12-07T12:32:14;5.50;34.00
34572;DHT22;20808;48.974;8.452;2022-12-07T12:35:17;5.60;1.00
34572;DHT22;20808;48.974;8.452;2022-12-07T12:37:47;5.70;1.00
34572;DHT22;20808;48.974;8.452;2022-12-07T12:40:43;5.70;1.00
34572;DHT22;20808;48.974;8.452;2022-12-07T12:43:48;5.60;1.00
34572;DHT22;20808;48.974;8.452;2022-12-07T12:46:48;5.80;1.00
34572;DHT22;20808;48.974;8.452;2022-12-07T12:49:34;5.80;1.00
34572;DHT22;20808;48.974;8.452;2022-12-07T12:58:39;5.70;1.00
34572;DHT22;20808;48.974;8.452;2022-12-07T13:01:41;5.70;1.00
34572;DHT22;20808;48.974;8.452;2022-12-07T13:07:50;5.50;1.00
34572;DHT22;20808;48.974;8.452;2022-12-07T13:10:37;5.30;1.00
34572;DHT22;20808;48.974;8.452;2022-12-07T13:13:35;5.30;1.00
34572;DHT22;20808;48.974;8.452;2022-12-07T13:19:58;5.40;1.00
34572;DHT22;20808;48.974;8.452;2022-12-07T13:22:42;5.40;40.60
34572;DHT22;20808;48.974;8.452;2022-12-07T13:25:11;5.30;1.00
34572;DHT22;20808;48.974;8.452;2022-12-07T13:27:41;5.30;99.90
34572;DHT22;20808;48.974;8.452;2022-12-07T13:30:14;5.20;1.00
34572;DHT22;20808;48.974;8.452;2022-12-07T13:32:42;5.10;1.00
34572;DHT22;20808;48.974;8.452;2022-12-07T13:35:31;5.10;1.00
34572;DHT22;20808;48.974;8.452;2022-12-07T13:38:22;5.10;99.90
34572;DHT22;20808;48.974;8.452;2022-12-07T13:41:04;5.10;1.00
34572;DHT22;20808;48.974;8.452;2022-12-07T13:43:31;5.00;99.90
34572;DHT22;20808;48.974;8.452;2022-12-07T13:45:59;5.00;1.00
34572;DHT22;20808;48.974;8.452;2022-12-07T13:48:30;5.00;1.00
34572;DHT22;20808;48.974;8.452;2022-12-07T13:51:00;5.00;1.00
34572;DHT22;20808;48.974;8.452;2022-12-07T13:53:28;5.00;99.90
34572;DHT22;20808;48.974;8.452;2022-12-07T13:55:56;4.90;1.00
34572;DHT22;20808;48.974;8.452;2022-12-07T14:02:18;5.00;99.90
34572;DHT22;20808;48.974;8.452;2022-12-07T14:04:48;4.90;1.00
34572;DHT22;20808;48.974;8.452;2022-12-07T14:07:21;4.90;1.00
34572;DHT22;20808;48.974;8.452;2022-12-07T14:09:56;4.90;1.00
34572;DHT22;20808;48.974;8.452;2022-12-07T14:12:23;5.00;1.00
34572;DHT22;20808;48.974;8.452;2022-12-07T14:14:51;5.00;1.00
34572;DHT22;20808;48.974;8.452;2022-12-07T14:17:21;5.00;1.00
34572;DHT22;20808;48.974;8.452;2022-12-07T14:19:51;5.00;1.00
34572;DHT22;20808;48.974;8.452;2022-12-07T14:22:26;4.90;1.00
34572;DHT22;20808;48.974;8.452;2022-12-07T14:25:01;4.90;99.90
34572;DHT22;20808;48.974;8.452;2022-12-07T14:27:36;4.90;99.90
34572;DHT22;20808;48.974;8.452;2022-12-07T14:30:04;4.90;99.90
34572;DHT22;20808;48.974;8.452;2022-12-07T14:32:35;5.00;99.90
34572;DHT22;20808;48.974;8.452;2022-12-07T14:35:09;5.00;1.00
34572;DHT22;20808;48.974;8.452;2022-12-07T14:37:38;5.00;1.00
34572;DHT22;20808;48.974;8.452;2022-12-07T14:40:06;5.00;1.00
34572;DHT22;20808;48.974;8.452;2022-12-07T14:45:39;5.00;99.90
34572;DHT22;20808;48.974;8.452;2022-12-07T14:48:07;4.90;99.90
34572;DHT22;20808;48.974;8.452;2022-12-07T14:50:40;4.90;18.30
34572;DHT22;20808;48.974;8.452;2022-12-07T14:53:11;5.00;1.00
34572;DHT22;20808;48.974;8.452;2022-12-07T14:55:39;5.00;99.90
34572;DHT22;20808;48.974;8.452;2022-12-07T14:58:07;5.00;1.00
34572;DHT22;20808;48.974;8.452;2022-12-07T15:00:38;5.00;1.00
34572;DHT22;20808;48.974;8.452;2022-12-07T15:03:06;5.00;1.00
34572;DHT22;20808;48.974;8.452;2022-12-07T15:05:33;5.00;99.90
34572;DHT22;20808;48.974;8.452;2022-12-07T15:08:01;4.90;1.00
34572;DHT22;20808;48.974;8.452;2022-12-07T15:10:30;4.90;18.80
34572;DHT22;20808;48.974;8.452;2022-12-07T15:12:57;4.90;18.40
34572;DHT22;20808;48.974;8.452;2022-12-07T15:15:45;4.90;99.90
34572;DHT22;20808;48.974;8.452;2022-12-07T15:18:13;4.90;1.00
34572;DHT22;20808;48.974;8.452;2022-12-07T15:20:40;4.90;1.00
34572;DHT22;20808;48.974;8.452;2022-12-07T15:23:07;4.80;6.90
34572;DHT22;20808;48.974;8.452;2022-12-07T15:25:46;4.80;99.90
34572;DHT22;20808;48.974;8.452;2022-12-07T15:28:14;4.80;59.00
34572;DHT22;20808;48.974;8.452;2022-12-07T15:30:42;4.80;71.50
34572;DHT22;20808;48.974;8.452;2022-12-07T15:33:09;4.80;1.00
34572;DHT22;20808;48.974;8.452;2022-12-07T15:35:39;4.80;14.20
34572;DHT22;20808;48.974;8.452;2022-12-07T15:38:06;4.80;8.00
34572;DHT22;20808;48.974;8.452;2022-12-07T15:40:33;4.80;1.00
34572;DHT22;20808;48.974;8.452;2022-12-07T15:43:00;4.80;99.90
34572;DHT22;20808;48.974;8.452;2022-12-07T15:45:27;4.70;99.90
34572;DHT22;20808;48.974;8.452;2022-12-07T15:47:53;4.70;99.90
34572;DHT22;20808;48.974;8.452;2022-12-07T15:50:21;4.70;99.90
34572;DHT22;20808;48.974;8.452;2022-12-07T15:52:50;4.70;99.90
34572;DHT22;20808;48.974;8.452;2022-12-07T15:55:16;4.70;99.90
34572;DHT22;20808;48.974;8.452;2022-12-07T15:57:43;4.70;99.90
34572;DHT22;20808;48.974;8.452;2022-12-07T16:00:11;4.70;99.90
34572;DHT22;20808;48.974;8.452;2022-12-07T16:02:38;4.60;1.00
34572;DHT22;20808;48.974;8.452;2022-12-07T16:07:57;4.50;1.00
34572;DHT22;20808;48.974;8.452;2022-12-07T16:10:24;4.50;1.00
34572;DHT22;20808;48.974;8.452;2022-12-07T16:12:51;4.40;1.00
34572;DHT22;20808;48.974;8.452;2022-12-07T16:15:18;4.40;1.00
34572;DHT22;20808;48.974;8.452;2022-12-07T16:17:44;4.40;1.00
34572;DHT22;20808;48.974;8.452;2022-12-07T16:20:11;4.40;1.00
34572;DHT22;20808;48.974;8.452;2022-12-07T16:22:39;4.40;1.00
34572;DHT22;20808;48.974;8.452;2022-12-07T16:25:08;4.30;1.00
34572;DHT22;20808;48.974;8.452;2022-12-07T16:27:48;4.30;1.00
34572;DHT22;20808;48.974;8.452;2022-12-07T16:30:15;4.30;1.00
34572;DHT22;20808;48.974;8.452;2022-12-07T16:32:42;4.30;1.00
34572;DHT22;20808;48.974;8.452;2022-12-07T16:35:10;4.20;1.00
34572;DHT22;20808;48.974;8.452;2022-12-07T16:37:37;4.20;1.00
34572;DHT22;20808;48.974;8.452;2022-12-07T16:40:05;4.20;1.00
34572;DHT22;20808;48.974;8.452;2022-12-07T16:42:33;4.20;1.00
34572;DHT22;20808;48.974;8.452;2022-12-07T16:45:01;4.20;1.00
34572;DHT22;20808;48.974;8.452;2022-12-07T16:47:28;4.20;1.00
34572;DHT22;20808;48.974;8.452;2022-12-07T16:49:59;4.20;1.00